Time;durP1;ratioP1;P1;durP2;ratioP2;P2;SDS_P1;SDS_P2;PMS_P1;PMS_P2;Temp;Humidity;BMP_temperature;BMP_pressure;BME280_temperature;BME280_humidity;BME280_pressure;Samples;Min_cycle;Max_cycle;Signal;HPM_P1;HPM_P2
2021/07/02 00:01:28;;;;;;;4.00;3.63;;;22.30;52.40;;;;;;5075693;28;20169;-83
2021/07/02 00:03:58;;;;;;;3.45;3.10;;;22.30;52.40;;;;;;5077527;28;20514;-83
2021/07/02 00:06:24;;;;;;;3.55;3.25;;;22.30;52.30;;;;;;5076803;28;20180;-83
2021/07/02 00:08:50;;;;;;;3.70;3.30;;;22.30;52.30;;;;;;5095863;28;20175;-83
2021/07/02 00:11:19;;;;;;;3.58;3.28;;;22.30;52.20;;;;;;5099279;28;20157;-82
2021/07/02 00:13:45;;;;;;;3.90;3.50;;;22.30;52.10;;;;;;5098180;28;20193;-83
2021/07/02 00:16:17;;;;;;;3.83;3.22;;;22.30;52.30;;;;;;5098955;28;20207;-83
2021/07/02 00:18:43;;;;;;;3.42;3.13;;;22.30;52.20;;;;;;5098810;28;20172;-83
2021/07/02 00:21:10;;;;;;;3.53;3.15;;;22.30;52.30;;;;;;5080821;28;20163;-83
2021/07/02 00:23:36;;;;;;;3.70;3.30;;;22.30;52.30;;;;;;5080933;28;20651;-82
2021/07/02 00:26:02;;;;;;;3.90;3.50;;;22.30;52.90;;;;;;5098322;28;20167;-84
2021/07/02 00:28:35;;;;;;;3.75;3.17;;;22.30;52.30;;;;;;5099024;28;20187;-84
2021/07/02 00:31:01;;;;;;;3.38;3.08;;;22.30;52.30;;;;;;5081177;28;20177;-84
2021/07/02 00:33:27;;;;;;;3.30;3.00;;;22.30;52.30;;;;;;5098634;28;20204;-84
2021/07/02 00:35:53;;;;;;;3.78;3.40;;;22.30;52.40;;;;;;5080874;28;20654;-85
2021/07/02 00:38:24;;;;;;;3.53;3.22;;;22.30;52.30;;;;;;5099044;28;20157;-84
2021/07/02 00:40:54;;;;;;;3.92;3.60;;;22.30;52.30;;;;;;5063155;28;20173;-84
2021/07/02 00:43:24;;;;;;;4.10;3.70;;;22.30;52.40;;;;;;5062857;28;20180;-84
2021/07/02 00:45:50;;;;;;;4.10;3.70;;;22.30;52.30;;;;;;5079681;28;20271;-85
2021/07/02 00:48:22;;;;;;;4.13;3.40;;;22.20;52.40;;;;;;5099147;28;20200;-84
2021/07/02 00:50:52;;;;;;;3.90;3.50;;;22.30;52.40;;;;;;5097218;28;20150;-84
2021/07/02 00:53:22;;;;;;;3.90;3.50;;;22.30;52.30;;;;;;5080263;28;20311;-85
2021/07/02 00:55:51;;;;;;;3.78;3.45;;;22.30;52.60;;;;;;5081510;28;20168;-85
2021/07/02 00:58:17;;;;;;;3.88;3.47;;;22.30;52.50;;;;;;5080191;28;20172;-84
2021/07/02 01:00:48;;;;;;;4.15;3.75;;;22.30;52.50;;;;;;5080922;28;20191;-84
2021/07/02 01:03:14;;;;;;;3.72;3.35;;;22.30;52.40;;;;;;5079173;28;20185;-84
2021/07/02 01:05:40;;;;;;;3.47;3.17;;;22.30;52.60;;;;;;5097956;28;20178;-84
2021/07/02 01:08:09;;;;;;;3.70;3.30;;;22.30;52.50;;;;;;5097739;28;20625;-85
2021/07/02 01:10:35;;;;;;;3.83;3.50;;;22.30;52.50;;;;;;5096589;28;20153;-84
2021/07/02 01:13:06;;;;;;;4.03;3.63;;;22.20;52.50;;;;;;5080871;28;20203;-84
2021/07/02 01:15:32;;;;;;;3.70;3.40;;;22.30;52.60;;;;;;5046622;28;20195;-84
2021/07/02 01:18:08;;;;;;;4.53;3.65;;;22.30;52.70;;;;;;5097007;28;20231;-84
2021/07/02 01:20:35;;;;;;;3.97;3.58;;;22.30;52.60;;;;;;5095716;28;20148;-84
2021/07/02 01:23:00;;;;;;;3.70;3.40;;;22.20;52.70;;;;;;5096433;28;20188;-84
2021/07/02 01:25:31;;;;;;;3.33;3.03;;;22.30;52.80;;;;;;5078254;28;20184;-84
2021/07/02 01:27:59;;;;;;;4.90;3.50;;;22.20;52.60;;;;;;5094891;28;20149;-85
2021/07/02 01:30:28;;;;;;;3.80;3.25;;;22.20;52.70;;;;;;5077923;28;20165;-85
2021/07/02 01:32:54;;;;;;;3.70;3.35;;;22.20;52.90;;;;;;5077820;28;20185;-85
2021/07/02 01:35:20;;;;;;;4.03;3.28;;;22.20;52.70;;;;;;5094687;28;20153;-85
2021/07/02 01:37:46;;;;;;;3.38;3.08;;;22.20;52.90;;;;;;5094618;28;20160;-84
2021/07/02 01:40:15;;;;;;;4.10;3.30;;;22.20;53.00;;;;;;5077998;28;20553;-84
2021/07/02 01:42:42;;;;;;;3.88;3.22;;;22.30;52.90;;;;;;5094471;28;20168;-84
2021/07/02 01:45:08;;;;;;;4.00;3.60;;;22.30;53.20;;;;;;5095536;28;20149;-84
2021/07/02 01:47:37;;;;;;;3.58;3.28;;;22.20;53.30;;;;;;5094425;28;20156;-84
2021/07/02 01:50:05;;;;;;;3.75;3.38;;;22.20;53.00;;;;;;5095864;28;20160;-84
2021/07/02 01:52:30;;;;;;;3.30;3.00;;;22.20;52.90;;;;;;5095774;28;20227;-84
2021/07/02 01:55:00;;;;;;;3.40;3.10;;;22.20;53.00;;;;;;5077312;28;20169;-84
2021/07/02 01:57:27;;;;;;;3.97;3.40;;;22.20;53.10;;;;;;5077084;28;20760;-85
2021/07/02 01:59:53;;;;;;;3.67;3.25;;;22.20;53.10;;;;;;5094035;28;20157;-85
2021/07/02 02:02:19;;;;;;;4.15;3.35;;;22.20;53.20;;;;;;5094090;28;20171;-85
2021/07/02 02:04:51;;;;;;;4.18;3.78;;;22.20;53.20;;;;;;5077185;28;20161;-84
2021/07/02 02:07:17;;;;;;;4.30;3.60;;;22.20;53.30;;;;;;5077471;28;20153;-85
2021/07/02 02:09:44;;;;;;;3.80;3.40;;;22.20;53.20;;;;;;5094137;28;20165;-84
2021/07/02 02:12:10;;;;;;;3.63;3.20;;;22.20;53.20;;;;;;5093826;28;20153;-84
2021/07/02 02:14:44;;;;;;;3.83;3.30;;;22.20;52.90;;;;;;5076990;28;20157;-84
2021/07/02 02:17:14;;;;;;;4.20;3.80;;;22.20;53.10;;;;;;5094158;28;20163;-85
2021/07/02 02:19:44;;;;;;;3.60;3.30;;;22.10;53.20;;;;;;5042953;28;20208;-84
2021/07/02 02:22:13;;;;;;;3.72;3.42;;;22.20;53.30;;;;;;5059521;28;20188;-85
2021/07/02 02:24:43;;;;;;;3.70;3.30;;;22.20;53.10;;;;;;5076897;28;20163;-84
2021/07/02 02:27:09;;;;;;;3.65;3.35;;;22.20;53.40;;;;;;5059506;28;20192;-84
2021/07/02 02:29:38;;;;;;;3.90;3.60;;;22.20;53.20;;;;;;5094629;28;20156;-84
2021/07/02 02:32:11;;;;;;;3.80;3.42;;;22.20;53.00;;;;;;5075731;28;20157;-84
2021/07/02 02:34:37;;;;;;;3.70;3.40;;;22.20;53.00;;;;;;5042691;28;20184;-85
2021/07/02 02:37:07;;;;;;;3.70;3.40;;;22.20;53.20;;;;;;5094625;28;20522;-84
2021/07/02 02:39:33;;;;;;;4.05;3.60;;;22.20;53.30;;;;;;5059408;28;20180;-84
2021/07/02 02:41:59;;;;;;;4.38;3.58;;;22.10;53.20;;;;;;5093590;28;20148;-84
2021/07/02 02:44:25;;;;;;;3.60;3.30;;;22.20;53.10;;;;;;5076349;28;20214;-84
2021/07/02 02:46:51;;;;;;;3.42;3.13;;;22.20;53.30;;;;;;5093798;28;20149;-85
2021/07/02 02:49:17;;;;;;;4.00;3.60;;;22.20;53.30;;;;;;5059163;28;20184;-85
2021/07/02 02:51:43;;;;;;;3.60;3.30;;;22.20;53.40;;;;;;5094431;28;20161;-84
2021/07/02 02:54:09;;;;;;;3.95;3.47;;;22.20;53.50;;;;;;5075795;28;20251;-85
2021/07/02 02:56:36;;;;;;;3.90;3.50;;;22.20;53.50;;;;;;5093294;28;20604;-84
2021/07/02 02:59:02;;;;;;;3.72;3.33;;;22.20;54.20;;;;;;5093557;28;20175;-85
2021/07/02 03:01:28;;;;;;;3.88;3.50;;;22.20;53.50;;;;;;5093615;28;20157;-84
2021/07/02 03:03:54;;;;;;;3.60;3.30;;;22.20;53.40;;;;;;5092975;28;20304;-84
2021/07/02 03:06:20;;;;;;;3.92;3.53;;;22.20;53.20;;;;;;5076378;28;20571;-84
2021/07/02 03:08:46;;;;;;;3.70;3.40;;;22.20;53.00;;;;;;5093979;28;20511;-84
2021/07/02 03:11:12;;;;;;;3.78;3.40;;;22.10;53.50;;;;;;5092739;28;20165;-84
2021/07/02 03:13:38;;;;;;;3.80;3.33;;;22.10;53.50;;;;;;5092627;28;20239;-84
2021/07/02 03:16:04;;;;;;;3.85;3.45;;;22.20;53.70;;;;;;5093910;28;20153;-85
2021/07/02 03:18:30;;;;;;;3.45;3.15;;;22.10;53.60;;;;;;5092999;28;20217;-85
2021/07/02 03:20:56;;;;;;;4.05;3.55;;;22.10;53.60;;;;;;5075677;28;20157;-84
2021/07/02 03:23:22;;;;;;;4.03;3.63;;;22.20;53.60;;;;;;5092909;28;20519;-84
2021/07/02 03:25:48;;;;;;;4.10;3.70;;;22.20;53.60;;;;;;5092834;28;20484;-85
2021/07/02 03:28:14;;;;;;;3.70;3.40;;;22.10;53.40;;;;;;5092461;28;20152;-84
2021/07/02 03:30:44;;;;;;;4.13;3.60;;;22.20;53.50;;;;;;5093016;28;20188;-84
2021/07/02 03:33:14;;;;;;;3.85;3.45;;;22.20;53.60;;;;;;5041714;28;20701;-84
2021/07/02 03:35:40;;;;;;;4.38;3.97;;;22.20;53.50;;;;;;5058373;28;20219;-84
2021/07/02 03:38:06;;;;;;;3.88;3.50;;;22.10;53.50;;;;;;5075492;28;20161;-85
2021/07/02 03:40:32;;;;;;;4.00;3.60;;;22.10;53.50;;;;;;5092386;28;20522;-84
2021/07/02 03:42:58;;;;;;;3.90;3.50;;;22.20;53.60;;;;;;5093198;28;20165;-85
2021/07/02 03:45:24;;;;;;;3.60;3.30;;;22.20;53.50;;;;;;5092321;28;20164;-84
2021/07/02 03:47:50;;;;;;;3.80;3.42;;;22.20;53.60;;;;;;5092316;28;20274;-85
2021/07/02 03:50:16;;;;;;;3.90;3.50;;;22.20;53.50;;;;;;5075796;28;20553;-85
2021/07/02 03:52:41;;;;;;;3.85;3.30;;;22.20;53.40;;;;;;5093369;28;20243;-84
2021/07/02 03:55:10;;;;;;;4.38;3.47;;;22.20;53.30;;;;;;5092440;28;20287;-85
2021/07/02 03:57:36;;;;;;;3.75;3.42;;;22.20;53.50;;;;;;5092208;28;20157;-85
2021/07/02 04:00:02;;;;;;;3.45;3.15;;;22.20;53.50;;;;;;5093771;28;20546;-85
2021/07/02 04:02:29;;;;;;;3.40;3.10;;;22.20;53.50;;;;;;5093284;28;20152;-84
2021/07/02 04:04:55;;;;;;;4.03;3.60;;;22.20;53.20;;;;;;5092092;28;20156;-84
2021/07/02 04:07:24;;;;;;;3.50;3.17;;;22.20;53.30;;;;;;5093327;28;20172;-84
2021/07/02 04:09:50;;;;;;;4.43;3.65;;;22.20;53.00;;;;;;5092017;28;20251;-85
2021/07/02 04:12:16;;;;;;;4.25;3.70;;;22.20;53.00;;;;;;5075101;28;20208;-85
2021/07/02 04:14:44;;;;;;;3.47;3.17;;;22.20;53.00;;;;;;5091968;28;20561;-85
2021/07/02 04:17:10;;;;;;;3.28;2.97;;;22.20;53.40;;;;;;5092494;28;20184;-85
2021/07/02 04:19:36;;;;;;;3.85;2.90;;;22.10;53.60;;;;;;5092208;28;20160;-85
2021/07/02 04:22:04;;;;;;;3.38;3.05;;;22.10;53.70;;;;;;5093425;28;20160;-85
2021/07/02 04:24:30;;;;;;;3.10;2.80;;;22.00;53.90;;;;;;5091843;28;20632;-84
2021/07/02 04:26:56;;;;;;;3.53;3.17;;;22.00;53.90;;;;;;5092158;28;20163;-84
2021/07/02 04:29:22;;;;;;;3.83;2.75;;;22.10;53.60;;;;;;5092163;28;20157;-85
2021/07/02 04:31:48;;;;;;;3.28;2.97;;;22.20;53.40;;;;;;5093112;28;20672;-84
2021/07/02 04:34:14;;;;;;;3.50;3.20;;;22.20;53.30;;;;;;5092085;28;20188;-84
2021/07/02 04:36:39;;;;;;;3.92;3.00;;;22.30;53.20;;;;;;5093200;28;20556;-85
2021/07/02 04:39:05;;;;;;;3.45;3.15;;;22.30;53.30;;;;;;5091770;28;20522;-84
2021/07/02 04:41:32;;;;;;;3.40;3.08;;;22.30;53.30;;;;;;5091722;28;20585;-85
2021/07/02 04:43:57;;;;;;;3.42;3.10;;;22.30;53.30;;;;;;5091844;28;20156;-85
2021/07/02 04:46:23;;;;;;;3.38;2.95;;;22.30;53.20;;;;;;5074984;28;20620;-85
2021/07/02 04:48:49;;;;;;;3.22;2.92;;;22.40;53.10;;;;;;5075301;28;20160;-84
2021/07/02 04:51:15;;;;;;;3.00;2.70;;;22.40;53.10;;;;;;5092238;28;20148;-84
2021/07/02 04:53:43;;;;;;;3.28;2.97;;;22.40;53.00;;;;;;5091356;28;20244;-85
2021/07/02 04:56:12;;;;;;;3.10;2.80;;;22.50;52.80;;;;;;5077190;28;20164;-84
2021/07/02 04:58:42;;;;;;;3.05;2.75;;;22.60;53.00;;;;;;5095992;28;20173;-85
2021/07/02 05:01:08;;;;;;;3.22;2.92;;;22.50;52.80;;;;;;5079055;28;20169;-85
2021/07/02 05:03:34;;;;;;;3.22;2.92;;;22.50;52.90;;;;;;5095294;28;20651;-85
2021/07/02 05:06:02;;;;;;;3.30;3.00;;;22.60;52.80;;;;;;5095440;28;20161;-85
2021/07/02 05:08:28;;;;;;;3.15;2.85;;;22.50;52.70;;;;;;5095401;28;20185;-84
2021/07/02 05:10:54;;;;;;;3.25;2.95;;;22.50;52.80;;;;;;5095119;28;20269;-84
2021/07/02 05:13:20;;;;;;;3.53;3.03;;;22.50;52.90;;;;;;5095156;28;20212;-85
2021/07/02 05:15:47;;;;;;;3.25;2.95;;;22.50;52.90;;;;;;5095146;28;20261;-85
2021/07/02 05:18:14;;;;;;;3.28;2.97;;;22.50;53.00;;;;;;5095112;28;20635;-85
2021/07/02 05:20:43;;;;;;;3.10;2.78;;;22.40;52.90;;;;;;5096289;28;20671;-85
2021/07/02 05:23:10;;;;;;;3.20;2.90;;;22.50;53.10;;;;;;5095192;28;20180;-85
2021/07/02 05:25:36;;;;;;;3.30;3.00;;;22.50;53.00;;;;;;5094861;28;20160;-85
2021/07/02 05:28:03;;;;;;;3.25;2.75;;;22.60;52.80;;;;;;5094866;28;20498;-85
2021/07/02 05:30:29;;;;;;;3.22;2.92;;;22.60;52.80;;;;;;5096049;28;20145;-85
2021/07/02 05:32:54;;;;;;;3.40;3.10;;;22.50;52.80;;;;;;5094509;28;20268;-85
2021/07/02 05:35:25;;;;;;;3.20;2.90;;;22.50;52.90;;;;;;5077982;28;20255;-85
2021/07/02 05:37:50;;;;;;;3.20;2.90;;;22.60;52.90;;;;;;5057115;28;20184;-85
2021/07/02 05:40:19;;;;;;;3.20;2.80;;;22.60;52.80;;;;;;5074489;28;20207;-85
2021/07/02 05:42:46;;;;;;;3.13;2.83;;;22.70;52.60;;;;;;5090674;28;20211;-85
2021/07/02 05:45:16;;;;;;;3.20;2.90;;;22.80;52.50;;;;;;5073554;28;20235;-85
2021/07/02 05:47:58;;;;;;;3.33;3.03;;;22.70;52.40;;;;;;5073754;28;20264;-84
2021/07/02 05:50:24;;;;;;;3.47;3.05;;;22.70;52.60;;;;;;5076558;28;20185;-85
2021/07/02 05:52:51;;;;;;;3.13;2.83;;;22.60;52.70;;;;;;5090951;28;20630;-84
2021/07/02 05:55:17;;;;;;;3.25;2.92;;;22.60;52.80;;;;;;5074273;28;20165;-85
2021/07/02 05:57:43;;;;;;;3.33;3.03;;;22.60;52.60;;;;;;5074362;28;20146;-85
2021/07/02 06:00:09;;;;;;;3.10;2.80;;;22.70;52.70;;;;;;5057580;28;20170;-85
2021/07/02 06:02:35;;;;;;;2.80;2.60;;;22.70;52.70;;;;;;5074091;28;20165;-84
2021/07/02 06:05:01;;;;;;;3.10;2.80;;;22.70;52.70;;;;;;5074027;28;20672;-85
2021/07/02 06:07:26;;;;;;;3.42;3.03;;;22.80;52.60;;;;;;5073817;28;20158;-85
2021/07/02 06:09:53;;;;;;;3.22;2.92;;;22.80;52.50;;;;;;5057198;28;20243;-85
2021/07/02 06:12:19;;;;;;;3.60;3.30;;;22.80;52.70;;;;;;5057017;28;20191;-85
2021/07/02 06:14:45;;;;;;;3.25;2.95;;;22.70;52.50;;;;;;5056877;28;20259;-85
2021/07/02 06:17:11;;;;;;;3.22;2.92;;;22.70;52.90;;;;;;5073709;28;20161;-85
2021/07/02 06:19:37;;;;;;;3.70;2.80;;;22.70;53.00;;;;;;5090634;28;20177;-85
2021/07/02 06:22:04;;;;;;;3.28;2.97;;;22.70;53.10;;;;;;5073754;28;20635;-85
2021/07/02 06:24:30;;;;;;;3.35;3.05;;;22.70;53.10;;;;;;5091630;28;20578;-85
2021/07/02 06:26:58;;;;;;;3.45;3.15;;;22.70;53.00;;;;;;5073698;28;20180;-85
2021/07/02 06:29:24;;;;;;;4.10;2.78;;;22.70;53.20;;;;;;5057428;28;20185;-85
2021/07/02 06:31:49;;;;;;;3.10;2.80;;;22.70;53.10;;;;;;5073737;28;20228;-85
2021/07/02 06:34:29;;;;;;;3.22;2.95;;;22.70;53.00;;;;;;5073217;28;20192;-85
2021/07/02 06:37:00;;;;;;;3.63;3.17;;;22.70;53.10;;;;;;5075326;28;20154;-85
2021/07/02 06:39:26;;;;;;;3.13;2.83;;;22.70;53.70;;;;;;5073274;28;20204;-85
2021/07/02 06:41:51;;;;;;;3.42;3.13;;;22.70;54.00;;;;;;5056724;28;20592;-86
2021/07/02 06:44:22;;;;;;;3.25;2.95;;;22.70;53.70;;;;;;5073743;28;20164;-85
2021/07/02 06:46:48;;;;;;;3.13;2.83;;;22.70;53.40;;;;;;5056981;28;20220;-85
2021/07/02 06:49:17;;;;;;;3.47;3.17;;;22.80;53.60;;;;;;5073667;28;20189;-85
2021/07/02 06:51:46;;;;;;;3.53;3.15;;;22.70;53.50;;;;;;5074357;28;20241;-87
2021/07/02 06:54:15;;;;;;;4.43;2.92;;;22.80;54.00;;;;;;5054912;28;20707;-84
2021/07/02 06:59:34;;;;;;;3.30;3.00;;;22.80;52.80;;;;;;5072557;28;20180;-81
2021/07/02 07:02:03;;;;;;;3.20;2.85;;;22.80;53.50;;;;;;5072711;28;20266;-82
2021/07/02 07:04:35;;;;;;;4.32;3.28;;;22.80;53.20;;;;;;5089890;28;20185;-80
2021/07/02 07:07:05;;;;;;;4.45;3.00;;;22.80;52.80;;;;;;5073028;28;20538;-83
2021/07/02 07:09:34;;;;;;;3.15;2.85;;;22.80;53.90;;;;;;5074063;28;20177;-82
2021/07/02 07:12:02;;;;;;;3.53;3.22;;;22.80;53.60;;;;;;5089925;28;20548;-83
2021/07/02 07:14:30;;;;;;;3.30;3.00;;;22.90;53.90;;;;;;5073121;28;20185;-83
2021/07/02 07:16:59;;;;;;;3.95;3.00;;;22.90;53.50;;;;;;5090495;28;20632;-83
2021/07/02 07:19:28;;;;;;;3.70;3.30;;;22.90;53.60;;;;;;5071883;28;20214;-83
2021/07/02 07:21:56;;;;;;;3.30;3.00;;;22.90;53.70;;;;;;5072406;28;20299;-83
2021/07/02 07:24:22;;;;;;;3.13;2.83;;;22.90;53.60;;;;;;5088742;28;20334;-82
2021/07/02 07:26:49;;;;;;;3.53;3.22;;;22.80;53.30;;;;;;5072811;28;20648;-82
2021/07/02 07:29:17;;;;;;;2.90;2.70;;;22.90;54.10;;;;;;5055614;28;20177;-82
2021/07/02 07:31:44;;;;;;;3.58;3.28;;;22.80;53.60;;;;;;5055407;28;20667;-82
2021/07/02 07:34:10;;;;;;;3.22;2.92;;;22.80;54.00;;;;;;5056158;28;20687;-83
2021/07/02 07:36:37;;;;;;;3.70;3.05;;;22.80;53.60;;;;;;5067053;28;20334;-82
2021/07/02 07:39:04;;;;;;;3.83;3.42;;;22.90;53.90;;;;;;5076179;28;20157;-83
2021/07/02 07:41:30;;;;;;;3.67;3.38;;;22.90;54.40;;;;;;5093007;28;20153;-83
2021/07/02 07:43:56;;;;;;;3.40;3.10;;;22.90;53.80;;;;;;5092782;28;20692;-81
2021/07/02 07:46:24;;;;;;;4.70;3.50;;;22.90;53.60;;;;;;5077765;28;20160;-83
2021/07/02 07:48:50;;;;;;;3.70;3.13;;;23.00;54.20;;;;;;5093527;28;20244;-83
2021/07/02 07:51:32;;;;;;;3.25;2.95;;;22.90;53.50;;;;;;5074693;28;20171;-82
2021/07/02 07:53:57;;;;;;;3.40;3.10;;;22.90;53.70;;;;;;5077238;28;20289;-83
2021/07/02 07:56:26;;;;;;;3.60;3.10;;;22.90;54.00;;;;;;5075125;28;20583;-83
2021/07/02 07:58:51;;;;;;;3.22;2.95;;;22.90;54.10;;;;;;5091818;28;20154;-83
2021/07/02 08:01:17;;;;;;;3.15;2.85;;;22.90;53.90;;;;;;5075412;28;20171;-83
2021/07/02 08:03:43;;;;;;;3.35;3.05;;;22.90;54.00;;;;;;5092051;28;20172;-83
2021/07/02 08:06:09;;;;;;;3.35;2.95;;;22.90;53.80;;;;;;5094473;28;20520;-83
2021/07/02 08:08:34;;;;;;;3.40;3.10;;;22.90;54.10;;;;;;5095347;28;20160;-83
2021/07/02 08:11:00;;;;;;;4.35;3.30;;;22.90;54.10;;;;;;5092465;28;20153;-83
2021/07/02 08:13:28;;;;;;;3.50;3.20;;;22.90;54.00;;;;;;5091938;28;20629;-83
2021/07/02 08:15:55;;;;;;;3.42;3.13;;;23.00;53.80;;;;;;5094194;28;20164;-83
2021/07/02 08:18:20;;;;;;;3.40;2.92;;;22.90;54.40;;;;;;5093637;28;20170;-83
2021/07/02 08:20:46;;;;;;;3.17;2.88;;;23.00;53.60;;;;;;5076871;28;20169;-82
2021/07/02 08:23:12;;;;;;;3.03;2.72;;;23.00;53.80;;;;;;5094916;28;20156;-82
2021/07/02 08:25:38;;;;;;;3.78;3.40;;;22.90;53.90;;;;;;5092508;28;20156;-83
2021/07/02 08:30:42;;;;;;;5.28;3.50;;;22.90;54.70;;;;;;5095146;28;20152;-82
2021/07/02 08:33:07;;;;;;;3.55;3.25;;;23.00;54.70;;;;;;5095843;28;20191;-83
2021/07/02 08:35:33;;;;;;;3.67;3.38;;;22.90;54.00;;;;;;5079172;28;20169;-83
2021/07/02 08:38:00;;;;;;;3.75;3.00;;;23.00;55.50;;;;;;5096074;28;20149;-83
2021/07/02 08:40:25;;;;;;;4.75;3.53;;;23.00;54.40;;;;;;5096367;28;20149;-84
2021/07/02 08:42:51;;;;;;;3.70;3.10;;;23.00;54.40;;;;;;5096335;28;20161;-83
2021/07/02 08:45:17;;;;;;;5.07;3.53;;;23.00;54.50;;;;;;5097185;28;20153;-83
2021/07/02 08:47:43;;;;;;;3.45;3.15;;;23.00;54.50;;;;;;5097346;28;20160;-82
2021/07/02 08:50:09;;;;;;;3.63;3.28;;;23.00;54.00;;;;;;5096175;28;20152;-82
2021/07/02 08:52:36;;;;;;;3.92;3.55;;;22.90;54.40;;;;;;5095939;28;20220;-83
2021/07/02 08:55:04;;;;;;;4.03;3.50;;;22.90;55.00;;;;;;5080418;28;20161;-84
2021/07/02 08:57:31;;;;;;;4.10;3.72;;;23.00;55.30;;;;;;5080487;28;20214;-84
2021/07/02 08:59:57;;;;;;;3.75;3.45;;;23.00;55.00;;;;;;5079079;28;20584;-82
2021/07/02 09:02:40;;;;;;;4.47;3.50;;;23.00;54.70;;;;;;5094126;28;20184;-82
2021/07/02 09:05:35;;;;;;;4.47;3.30;;;23.00;53.80;;;;;;5095627;28;20153;-85
2021/07/02 09:08:01;;;;;;;3.63;3.33;;;23.00;54.50;;;;;;5095249;28;20157;-83
2021/07/02 09:10:32;;;;;;;4.35;3.53;;;23.10;54.70;;;;;;5095339;28;20533;-83
2021/07/02 09:12:59;;;;;;;5.90;3.65;;;23.10;54.20;;;;;;5095239;28;20253;-83
2021/07/02 09:15:25;;;;;;;3.33;3.03;;;23.00;54.70;;;;;;5094170;28;20196;-82
2021/07/02 09:17:55;;;;;;;3.67;3.28;;;23.00;54.40;;;;;;5095429;28;20155;-82
2021/07/02 09:20:29;;;;;;;4.10;3.70;;;23.00;54.40;;;;;;5094885;28;20184;-82
2021/07/02 09:22:59;;;;;;;3.80;3.40;;;23.00;54.90;;;;;;5081739;28;20192;-83
2021/07/02 09:25:37;;;;;;;4.75;3.60;;;23.00;54.80;;;;;;5100035;28;20153;-84
2021/07/02 09:28:11;;;;;;;3.72;3.38;;;23.00;55.00;;;;;;5101391;28;20148;-84
2021/07/02 09:30:44;;;;;;;4.50;3.53;;;23.00;54.90;;;;;;5115012;28;20179;-83
2021/07/02 09:33:17;;;;;;;4.72;3.70;;;23.00;54.60;;;;;;5103081;28;20767;-84
2021/07/02 09:35:51;;;;;;;4.18;3.78;;;23.10;55.20;;;;;;5068438;28;20185;-84
2021/07/02 09:38:18;;;;;;;4.28;3.88;;;23.10;55.10;;;;;;5102519;28;20188;-84
2021/07/02 09:40:45;;;;;;;4.20;3.80;;;23.20;54.70;;;;;;5082969;28;20275;-84
2021/07/02 09:43:18;;;;;;;5.32;3.80;;;23.20;55.10;;;;;;5101305;28;20149;-84
2021/07/02 09:45:50;;;;;;;4.40;4.00;;;23.20;54.70;;;;;;5102059;28;20165;-85
2021/07/02 09:48:19;;;;;;;4.10;3.70;;;23.10;54.30;;;;;;5101761;28;20160;-84
2021/07/02 09:50:59;;;;;;;4.05;3.65;;;23.10;54.90;;;;;;5100748;27;20192;-86
2021/07/02 09:53:28;;;;;;;5.32;3.85;;;23.10;54.80;;;;;;5103764;28;20259;-84
2021/07/02 09:55:59;;;;;;;4.00;3.60;;;23.00;55.50;;;;;;5103351;28;20173;-82
2021/07/02 09:58:28;;;;;;;3.90;3.50;;;23.10;54.90;;;;;;5101872;27;20216;-84
2021/07/02 10:01:00;;;;;;;3.92;3.50;;;23.10;54.60;;;;;;5099731;28;20230;-86
2021/07/02 10:03:29;;;;;;;4.15;3.75;;;23.10;54.50;;;;;;5067838;28;20245;-83
2021/07/02 10:06:06;;;;;;;4.93;3.65;;;23.10;54.60;;;;;;5100360;28;20643;-82
2021/07/02 10:08:35;;;;;;;3.80;3.50;;;23.10;54.90;;;;;;5116840;27;20187;-81
2021/07/02 10:11:03;;;;;;;4.05;3.65;;;22.90;54.60;;;;;;5097927;28;20156;-83
2021/07/02 10:13:33;;;;;;;5.07;3.80;;;23.10;54.60;;;;;;5097094;28;20197;-81
2021/07/02 10:16:04;;;;;;;4.07;3.67;;;23.10;54.80;;;;;;5079027;28;20211;-81
2021/07/02 10:18:33;;;;;;;4.07;3.67;;;23.10;54.70;;;;;;5078342;28;20188;-83
2021/07/02 10:21:02;;;;;;;3.78;3.47;;;23.10;54.70;;;;;;5119027;27;20176;-87
2021/07/02 10:23:32;;;;;;;4.05;3.65;;;23.10;54.50;;;;;;5099592;28;20180;-85
2021/07/02 10:26:02;;;;;;;3.90;3.50;;;23.10;54.50;;;;;;5095863;28;20183;-83
2021/07/02 10:28:30;;;;;;;3.78;3.45;;;23.10;54.50;;;;;;5092919;28;20185;-84
2021/07/02 10:30:57;;;;;;;4.13;3.65;;;23.20;54.40;;;;;;5076575;28;20191;-82
2021/07/02 10:33:27;;;;;;;4.32;3.92;;;23.20;54.50;;;;;;5076731;28;20675;-84
2021/07/02 10:35:57;;;;;;;4.05;3.65;;;23.10;54.40;;;;;;5110002;28;20646;-86
2021/07/02 10:38:40;;;;;;;4.20;3.80;;;23.30;54.50;;;;;;5077403;28;20198;-85
2021/07/02 10:41:12;;;;;;;4.60;4.10;;;23.20;54.70;;;;;;5078870;28;20212;-85
2021/07/02 10:43:50;;;;;;;4.28;3.88;;;23.30;54.50;;;;;;5093514;28;20247;-81
2021/07/02 10:46:17;;;;;;;4.25;3.85;;;23.30;54.40;;;;;;5092531;28;20191;-84
2021/07/02 10:48:58;;;;;;;4.28;3.88;;;23.30;54.40;;;;;;5093506;28;20169;-85
2021/07/02 10:51:43;;;;;;;4.47;4.07;;;23.20;54.20;;;;;;5094773;28;20153;-85
2021/07/02 10:54:29;;;;;;;4.28;3.88;;;23.30;54.50;;;;;;5092033;28;20216;-84
2021/07/02 10:57:03;;;;;;;4.68;3.95;;;23.20;54.40;;;;;;5094550;28;20236;-84
2021/07/02 10:59:59;;;;;;;4.22;3.83;;;23.30;54.40;;;;;;5094250;28;20187;-86
2021/07/02 11:02:34;;;;;;;4.10;3.78;;;23.30;54.30;;;;;;5060673;28;20187;-86
2021/07/02 11:05:01;;;;;;;5.00;4.30;;;23.30;54.40;;;;;;5076267;28;20658;-84
2021/07/02 11:07:49;;;;;;;4.20;3.80;;;23.30;54.30;;;;;;5093404;28;20214;-87
2021/07/02 11:10:18;;;;;;;4.65;3.95;;;23.40;54.10;;;;;;5094861;28;20222;-83
2021/07/02 11:13:01;;;;;;;5.05;4.05;;;23.40;54.10;;;;;;5076627;28;20251;-83
2021/07/02 11:15:30;;;;;;;4.43;4.00;;;23.30;54.10;;;;;;5095900;28;20611;-82
2021/07/02 11:18:16;;;;;;;6.00;3.78;;;23.30;54.20;;;;;;5092533;28;20222;-82
2021/07/02 11:20:45;;;;;;;7.50;4.20;;;23.40;54.40;;;;;;5092099;28;20202;-82
2021/07/02 11:23:15;;;;;;;5.45;4.38;;;23.20;54.50;;;;;;5075250;28;20180;-82
2021/07/02 11:25:55;;;;;;;4.68;4.00;;;23.30;54.50;;;;;;5075202;28;20176;-81
2021/07/02 11:28:39;;;;;;;4.30;3.90;;;23.20;54.50;;;;;;5092441;28;20176;-82
2021/07/02 11:31:08;;;;;;;4.78;4.28;;;23.30;54.20;;;;;;5093584;28;20156;-82
2021/07/02 11:33:37;;;;;;;4.25;3.80;;;23.40;54.30;;;;;;5091621;28;20733;-83
2021/07/02 11:36:08;;;;;;;6.57;3.70;;;23.40;54.30;;;;;;5108602;28;20177;-82
2021/07/02 11:38:52;;;;;;;4.70;3.58;;;23.40;54.20;;;;;;5074762;28;20190;-81
2021/07/02 11:41:30;;;;;;;4.68;4.22;;;23.40;54.90;;;;;;5092118;28;20185;-83
2021/07/02 11:44:00;;;;;;;5.43;3.72;;;23.40;54.20;;;;;;5075010;28;20184;-81
2021/07/02 11:46:28;;;;;;;4.30;3.72;;;23.40;54.10;;;;;;5074864;28;20180;-84
2021/07/02 11:48:54;;;;;;;5.03;4.40;;;23.40;54.10;;;;;;5091430;28;20271;-83
2021/07/02 11:51:23;;;;;;;4.70;4.20;;;23.50;54.10;;;;;;5092381;28;20214;-83
2021/07/02 11:53:53;;;;;;;4.13;3.72;;;23.40;54.10;;;;;;5091912;28;20216;-83
2021/07/02 11:56:24;;;;;;;4.78;3.90;;;23.30;54.20;;;;;;5092221;28;20642;-82
2021/07/02 11:58:52;;;;;;;4.50;4.05;;;23.40;54.10;;;;;;5075106;28;20165;-82
2021/07/02 12:01:20;;;;;;;4.13;3.70;;;23.40;54.10;;;;;;5075730;28;20167;-81
2021/07/02 12:03:52;;;;;;;5.05;4.10;;;23.40;54.20;;;;;;5093232;28;20156;-82
2021/07/02 12:06:25;;;;;;;4.50;4.10;;;23.40;54.30;;;;;;5091743;28;20149;-81
2021/07/02 12:08:53;;;;;;;4.90;4.32;;;23.40;54.30;;;;;;5075643;28;20165;-81
2021/07/02 12:11:28;;;;;;;4.38;3.97;;;23.30;54.30;;;;;;5092023;28;20153;-83
2021/07/02 12:13:54;;;;;;;4.10;3.70;;;23.40;54.40;;;;;;5091949;28;20267;-83
2021/07/02 12:16:20;;;;;;;6.32;4.10;;;23.40;54.40;;;;;;5093006;28;20567;-82
2021/07/02 12:18:52;;;;;;;4.75;4.25;;;23.30;54.40;;;;;;5075120;28;20274;-82
2021/07/02 12:21:25;;;;;;;6.00;4.20;;;23.40;54.30;;;;;;5074871;28;20160;-82
2021/07/02 12:23:52;;;;;;;4.20;3.80;;;23.40;54.20;;;;;;5059060;28;20184;-82
2021/07/02 12:26:19;;;;;;;4.80;4.05;;;23.50;54.30;;;;;;5091928;28;20181;-81
2021/07/02 12:29:03;;;;;;;5.05;4.38;;;23.50;54.40;;;;;;5091708;28;20206;-83
2021/07/02 12:31:39;;;;;;;4.40;4.00;;;23.50;54.20;;;;;;5093449;28;20176;-83
2021/07/02 12:34:07;;;;;;;4.75;4.10;;;23.50;54.30;;;;;;5091357;28;20596;-82
2021/07/02 12:36:34;;;;;;;5.15;4.65;;;23.40;54.30;;;;;;5091490;28;20247;-81
2021/07/02 12:39:10;;;;;;;4.30;3.90;;;23.50;54.30;;;;;;5073718;28;20176;-82
2021/07/02 12:41:40;;;;;;;4.90;4.45;;;23.60;54.20;;;;;;5091489;28;20148;-81
2021/07/02 12:44:06;;;;;;;4.45;4.05;;;23.40;54.40;;;;;;5075625;28;20176;-83
2021/07/02 12:46:32;;;;;;;4.35;3.95;;;23.40;54.40;;;;;;5092007;28;20149;-83
2021/07/02 12:49:17;;;;;;;4.40;4.00;;;23.50;54.60;;;;;;5091816;28;20187;-81
2021/07/02 12:51:59;;;;;;;7.03;4.20;;;23.40;54.40;;;;;;5075257;28;20164;-82
2021/07/02 12:57:26;;;;;;;4.80;4.40;;;23.60;54.60;;;;;;5092462;28;20153;-80
2021/07/02 12:59:57;;;;;;;4.22;3.83;;;23.50;54.40;;;;;;5074947;28;20165;-83
2021/07/02 13:02:44;;;;;;;4.40;3.65;;;23.60;54.20;;;;;;5074256;28;20193;-82
2021/07/02 13:05:14;;;;;;;4.82;4.32;;;23.60;54.40;;;;;;5075565;28;20640;-83